createdAt,value
2019-01-19T00:00:46.354Z,90.40
2019-01-19T00:03:14.329Z,90.70
2019-01-19T00:05:42.293Z,90.60
2019-01-19T00:08:12.207Z,90.70
2019-01-19T00:10:40.177Z,90.70
2019-01-19T00:13:08.152Z,90.80
2019-01-19T00:15:36.118Z,90.80
2019-01-19T00:18:04.194Z,90.80
2019-01-19T00:20:33.162Z,91.10
2019-01-19T00:23:01.253Z,90.80
2019-01-19T00:25:29.737Z,90.60
2019-01-19T00:27:57.917Z,90.70
2019-01-19T00:30:26.504Z,90.70
2019-01-19T00:32:55.952Z,90.50
2019-01-19T00:35:24.479Z,90.80
2019-01-19T00:37:52.417Z,90.60
2019-01-19T00:40:21.439Z,91.10
2019-01-19T00:42:49.491Z,91.00
2019-01-19T00:45:17.460Z,90.90
2019-01-19T00:47:45.564Z,90.80
2019-01-19T00:50:13.732Z,91.10
2019-01-19T00:52:41.903Z,91.10
2019-01-19T00:55:11.585Z,91.20
2019-01-19T00:57:39.584Z,91.40
2019-01-19T01:00:07.654Z,91.40
2019-01-19T01:02:35.626Z,91.50
2019-01-19T01:05:15.476Z,91.60
2019-01-19T01:07:43.543Z,91.40
2019-01-19T01:10:11.513Z,91.10
2019-01-19T01:12:39.658Z,91.10
2019-01-19T01:15:07.658Z,91.20
2019-01-19T01:17:35.630Z,91.00
2019-01-19T01:20:03.904Z,91.00
2019-01-19T01:22:32.828Z,90.60
2019-01-19T01:25:00.973Z,90.60
2019-01-19T01:27:29.044Z,90.60
2019-01-19T01:29:57.011Z,90.50
2019-01-19T01:32:25.081Z,90.30
2019-01-19T01:34:55.705Z,90.10
2019-01-19T01:37:23.774Z,90.10
2019-01-19T01:39:51.726Z,90.20
2019-01-19T01:42:19.827Z,90.40
2019-01-19T01:44:47.900Z,90.20
2019-01-19T01:47:15.843Z,90.10
2019-01-19T01:49:43.939Z,90.20
2019-01-19T01:52:12.012Z,90.10
2019-01-19T01:54:39.957Z,90.10
2019-01-19T01:57:08.051Z,90.30
2019-01-19T01:59:45.242Z,90.20
2019-01-19T02:02:13.514Z,90.20
2019-01-19T02:04:43.428Z,90.30
2019-01-19T02:07:12.987Z,90.10
2019-01-19T02:09:41.081Z,90.20
2019-01-19T02:12:10.748Z,90.20
2019-01-19T02:14:38.663Z,90.20
2019-01-19T02:17:08.231Z,90.00
2019-01-19T02:19:36.241Z,89.10
2019-01-19T02:22:05.566Z,89.40
2019-01-19T02:24:33.511Z,89.20
2019-01-19T02:27:01.478Z,89.70
2019-01-19T02:29:29.547Z,89.90
2019-01-19T02:31:57.623Z,90.10
2019-01-19T02:34:25.904Z,90.30
2019-01-19T02:36:53.894Z,90.40
2019-01-19T02:39:28.109Z,90.50
2019-01-19T02:41:56.080Z,90.80
2019-01-19T02:44:24.127Z,91.10
2019-01-19T02:46:52.120Z,91.20
2019-01-19T02:49:20.191Z,91.40
2019-01-19T02:51:48.264Z,91.60
2019-01-19T02:54:16.340Z,91.50
2019-01-19T02:56:44.498Z,91.30
2019-01-19T02:59:12.790Z,91.40
2019-01-19T03:01:40.947Z,90.50
2019-01-19T03:04:08.906Z,90.30
2019-01-19T03:06:36.899Z,90.70
2019-01-19T03:09:05.057Z,90.30
2019-01-19T03:11:34.127Z,90.10
2019-01-19T03:14:02.422Z,90.30
2019-01-19T03:16:30.725Z,90.30
2019-01-19T03:19:08.214Z,90.50
2019-01-19T03:21:38.114Z,90.70
2019-01-19T03:24:05.794Z,91.10
2019-01-19T03:26:33.940Z,91.00
2019-01-19T03:29:02.023Z,91.20
2019-01-19T03:31:31.977Z,91.50
2019-01-19T03:33:59.998Z,92.20
2019-01-19T03:36:28.098Z,92.00
2019-01-19T03:38:57.328Z,92.10
2019-01-19T03:41:25.754Z,92.10
2019-01-19T03:43:53.849Z,92.10
2019-01-19T03:46:22.125Z,92.40
2019-01-19T03:48:50.073Z,92.50
2019-01-19T03:51:18.165Z,92.60
2019-01-19T03:53:46.972Z,92.60
2019-01-19T03:56:14.930Z,92.50
2019-01-19T03:58:42.902Z,92.60
2019-01-19T04:01:10.865Z,92.70
2019-01-19T04:03:38.834Z,92.90
2019-01-19T04:06:12.665Z,93.00
2019-01-19T04:08:36.411Z,93.00
2019-01-19T04:11:04.382Z,93.20
2019-01-19T04:13:32.350Z,93.30
2019-01-19T04:16:00.293Z,93.30
2019-01-19T04:18:30.007Z,93.50
2019-01-19T04:20:57.975Z,93.50
2019-01-19T04:23:26.046Z,93.40
2019-01-19T04:25:54.040Z,93.60
2019-01-19T04:28:25.613Z,93.80
2019-01-19T04:30:53.664Z,94.00
2019-01-19T04:33:21.723Z,94.10
2019-01-19T04:35:49.692Z,94.20
2019-01-19T04:38:18.071Z,94.30
2019-01-19T04:40:46.062Z,94.20
2019-01-19T04:43:14.024Z,94.30
2019-01-19T04:45:41.974Z,94.80
2019-01-19T04:48:09.963Z,94.60
2019-01-19T04:50:37.939Z,94.70
2019-01-19T04:53:05.874Z,94.90
2019-01-19T04:55:33.846Z,95.00
2019-01-19T04:58:01.840Z,95.10
2019-01-19T05:00:29.886Z,95.20
2019-01-19T05:02:57.824Z,95.10
2019-01-19T05:05:27.086Z,95.20
2019-01-19T05:07:55.155Z,95.20
2019-01-19T05:10:24.085Z,95.20
2019-01-19T05:12:54.115Z,95.30
2019-01-19T05:15:21.930Z,95.30
2019-01-19T05:17:50.081Z,95.30
2019-01-19T05:20:19.979Z,95.30
2019-01-19T05:22:47.885Z,95.30
2019-01-19T05:25:15.956Z,95.50
2019-01-19T05:27:44.335Z,95.70
2019-01-19T05:30:12.406Z,95.90
2019-01-19T05:32:40.667Z,96.00
2019-01-19T05:35:08.857Z,96.10
2019-01-19T05:37:36.827Z,96.10
2019-01-19T05:40:04.904Z,96.10
2019-01-19T05:42:32.868Z,96.10
2019-01-19T05:45:00.840Z,96.20
2019-01-19T05:47:29.195Z,96.20
2019-01-19T05:49:57.188Z,96.20
2019-01-19T05:52:26.158Z,96.20
2019-01-19T05:54:54.163Z,96.30
2019-01-19T05:57:22.512Z,96.20
2019-01-19T05:59:50.498Z,96.10
2019-01-19T06:02:18.956Z,96.10
2019-01-19T06:04:46.950Z,96.00
2019-01-19T06:07:15.134Z,96.10
2019-01-19T06:09:43.093Z,96.00
2019-01-19T06:12:11.070Z,96.10
2019-01-19T06:14:39.002Z,96.10
2019-01-19T06:17:07.001Z,96.50
2019-01-19T06:19:35.287Z,96.20
2019-01-19T06:22:03.556Z,96.20
2019-01-19T06:24:33.156Z,96.20
2019-01-19T06:27:01.106Z,96.20
2019-01-19T06:29:29.306Z,96.30
2019-01-19T06:31:57.276Z,96.40
2019-01-19T06:34:25.231Z,96.50
2019-01-19T06:36:55.156Z,96.60
2019-01-19T06:39:22.822Z,96.70
2019-01-19T06:41:51.820Z,96.80
2019-01-19T06:44:19.793Z,97.10
2019-01-19T06:46:47.754Z,97.20
2019-01-19T06:49:15.696Z,97.30
2019-01-19T06:51:43.670Z,97.40
2019-01-19T06:54:12.071Z,97.50
2019-01-19T06:56:40.238Z,97.60
2019-01-19T06:59:08.295Z,97.70
2019-01-19T07:01:36.362Z,98.20
2019-01-19T07:04:04.340Z,98.00
2019-01-19T07:06:32.533Z,98.20
2019-01-19T07:09:00.478Z,98.40
2019-01-19T07:11:29.186Z,98.40
2019-01-19T07:13:57.157Z,98.50
2019-01-19T07:16:25.109Z,98.60
2019-01-19T07:18:53.610Z,98.70
2019-01-19T07:21:21.495Z,98.70
2019-01-19T07:23:49.554Z,98.60
2019-01-19T07:26:17.517Z,98.60
2019-01-19T07:28:45.589Z,98.50
2019-01-19T07:31:13.747Z,98.60
2019-01-19T07:33:41.733Z,98.70
2019-01-19T07:36:09.882Z,98.60
2019-01-19T07:38:37.977Z,98.50
2019-01-19T07:41:05.947Z,97.80
2019-01-19T07:43:34.298Z,97.30
2019-01-19T07:46:02.399Z,96.50
2019-01-19T07:48:30.551Z,95.90
2019-01-19T07:50:59.687Z,94.50
2019-01-19T07:53:27.638Z,94.00
2019-01-19T07:56:00.250Z,93.60
2019-01-19T07:58:28.288Z,92.80
2019-01-19T08:00:56.444Z,92.10
2019-01-19T08:03:24.431Z,91.70
2019-01-19T08:05:52.479Z,91.50
2019-01-19T08:08:20.784Z,90.90
2019-01-19T08:10:49.134Z,90.10
2019-01-19T08:13:19.104Z,89.60
2019-01-19T08:15:47.247Z,88.00
2019-01-19T08:18:15.294Z,86.50
2019-01-19T08:20:43.391Z,85.10
2019-01-19T08:23:11.446Z,83.50
2019-01-19T08:25:39.508Z,81.70
2019-01-19T08:28:07.506Z,79.50
2019-01-19T08:30:35.560Z,79.30
2019-01-19T08:33:03.650Z,77.80
2019-01-19T08:35:32.212Z,76.10
2019-01-19T08:38:00.181Z,75.10
2019-01-19T08:40:28.176Z,72.80
2019-01-19T08:43:09.953Z,71.10
2019-01-19T08:45:38.246Z,69.50
2019-01-19T08:48:06.494Z,67.20
2019-01-19T08:50:34.565Z,66.50
2019-01-19T08:53:02.766Z,63.60
2019-01-19T08:55:31.955Z,61.50
2019-01-19T08:58:00.042Z,59.40
2019-01-19T09:00:28.211Z,59.90
2019-01-19T09:02:56.156Z,59.00
2019-01-19T09:05:24.250Z,57.50
2019-01-19T09:07:52.196Z,56.50
2019-01-19T09:10:20.173Z,56.10
2019-01-19T09:12:48.240Z,53.40
2019-01-19T09:15:16.537Z,49.90
2019-01-19T09:17:44.509Z,49.60
2019-01-19T09:20:12.452Z,50.40
2019-01-19T09:22:41.583Z,47.80
2019-01-19T09:25:15.428Z,48.00
2019-01-19T09:27:40.150Z,47.40
2019-01-19T09:30:09.430Z,48.00
2019-01-19T09:32:37.735Z,48.60
2019-01-19T09:35:05.814Z,47.90
2019-01-19T09:37:40.655Z,47.00
2019-01-19T09:40:03.401Z,47.10
2019-01-19T09:42:31.576Z,47.60
2019-01-19T09:44:59.646Z,47.30
2019-01-19T09:47:27.719Z,48.20
2019-01-19T09:49:55.870Z,47.60
2019-01-19T09:52:25.081Z,48.50
2019-01-19T09:54:53.138Z,48.00
2019-01-19T09:57:21.131Z,47.30
2019-01-19T09:59:50.309Z,47.90
2019-01-19T10:02:18.301Z,46.30
2019-01-19T10:04:46.858Z,46.60
2019-01-19T10:07:14.751Z,45.30
2019-01-19T10:09:42.798Z,45.00
2019-01-19T10:12:10.894Z,44.90
2019-01-19T10:14:39.601Z,45.50
2019-01-19T10:17:09.597Z,44.80
2019-01-19T10:19:37.567Z,44.30
2019-01-19T10:22:05.639Z,43.70
2019-01-19T10:24:33.607Z,43.50
2019-01-19T10:27:01.567Z,43.10
2019-01-19T10:29:29.548Z,42.70
2019-01-19T10:31:57.589Z,43.50
2019-01-19T10:34:26.103Z,41.90
2019-01-19T10:36:54.074Z,41.90
2019-01-19T10:39:22.629Z,41.90
2019-01-19T10:41:50.599Z,42.00
2019-01-19T10:44:18.713Z,40.90
2019-01-19T10:46:48.005Z,40.90
2019-01-19T10:49:15.944Z,40.40
2019-01-19T10:51:43.915Z,40.00
2019-01-19T10:54:11.905Z,40.10
2019-01-19T10:56:39.977Z,40.10
2019-01-19T10:59:07.901Z,39.20
2019-01-19T11:01:36.121Z,39.90
2019-01-19T11:04:04.089Z,39.80
2019-01-19T11:06:32.058Z,40.40
2019-01-19T11:08:59.998Z,41.60
2019-01-19T11:11:28.279Z,41.00
2019-01-19T11:13:56.247Z,39.90
2019-01-19T11:16:24.253Z,39.60
2019-01-19T11:18:53.229Z,40.40
2019-01-19T11:21:21.287Z,40.40
2019-01-19T11:23:49.378Z,39.40
2019-01-19T11:26:17.452Z,41.40
2019-01-19T11:28:45.400Z,43.20
2019-01-19T11:31:13.391Z,44.80
2019-01-19T11:33:41.542Z,45.70
2019-01-19T11:36:11.227Z,47.80
2019-01-19T11:38:39.119Z,50.00
2019-01-19T11:41:07.091Z,51.20
2019-01-19T11:43:36.699Z,52.60
2019-01-19T11:46:06.619Z,52.90
2019-01-19T11:48:34.685Z,53.40
2019-01-19T11:51:02.644Z,54.00
2019-01-19T11:53:30.645Z,55.10
2019-01-19T11:55:58.595Z,55.60
2019-01-19T11:58:28.811Z,56.50
2019-01-19T12:00:56.805Z,57.20
2019-01-19T12:03:24.877Z,56.70
2019-01-19T12:05:53.240Z,56.60
2019-01-19T12:08:21.303Z,58.30
2019-01-19T12:10:49.299Z,59.00
2019-01-19T12:13:17.248Z,59.50
2019-01-19T12:15:45.238Z,59.40
2019-01-19T12:18:13.412Z,59.60
2019-01-19T12:20:41.387Z,58.50
2019-01-19T12:23:10.506Z,58.80
2019-01-19T12:25:38.650Z,59.40
2019-01-19T12:28:06.912Z,59.60
2019-01-19T12:30:34.899Z,59.00
2019-01-19T12:33:06.092Z,58.50
2019-01-19T12:35:34.111Z,57.60
2019-01-19T12:38:02.080Z,58.80
2019-01-19T12:40:30.155Z,59.30
2019-01-19T12:42:58.331Z,59.70
2019-01-19T12:45:26.297Z,58.50
2019-01-19T12:47:55.269Z,59.20
2019-01-19T12:50:23.335Z,59.40
2019-01-19T12:52:51.306Z,60.20
2019-01-19T12:55:19.304Z,59.60
2019-01-19T12:57:47.270Z,59.30
2019-01-19T13:00:15.241Z,60.10
2019-01-19T13:02:43.184Z,58.80
2019-01-19T13:05:11.178Z,59.40
2019-01-19T13:07:39.123Z,59.60
2019-01-19T13:10:07.117Z,59.40
2019-01-19T13:12:35.086Z,59.20
2019-01-19T13:15:03.550Z,59.40
2019-01-19T13:17:31.639Z,59.10
2019-01-19T13:19:59.608Z,59.00
2019-01-19T13:22:27.669Z,58.00
2019-01-19T13:24:55.632Z,58.10
2019-01-19T13:27:23.597Z,57.60
2019-01-19T13:29:51.570Z,58.20
2019-01-19T13:32:19.567Z,58.00
2019-01-19T13:34:47.504Z,57.70
2019-01-19T13:37:15.653Z,57.90
2019-01-19T13:39:43.649Z,58.10
2019-01-19T13:42:11.647Z,58.40
2019-01-19T13:44:39.698Z,59.00
2019-01-19T13:47:07.689Z,59.60
2019-01-19T13:49:36.244Z,60.90
2019-01-19T13:52:04.343Z,63.10
2019-01-19T13:54:33.998Z,63.20
2019-01-19T13:57:02.020Z,64.40
2019-01-19T13:59:30.194Z,64.70
2019-01-19T14:01:59.148Z,65.70
2019-01-19T14:04:27.155Z,66.00
2019-01-19T14:06:55.202Z,67.30
2019-01-19T14:09:23.173Z,68.20
2019-01-19T14:11:51.370Z,69.00
2019-01-19T14:14:19.547Z,68.80
2019-01-19T14:16:47.514Z,68.80
2019-01-19T14:19:17.332Z,68.60
2019-01-19T14:21:45.586Z,69.80
2019-01-19T14:24:13.778Z,69.40
2019-01-19T14:26:41.750Z,70.10
2019-01-19T14:29:09.898Z,71.30
2019-01-19T14:31:37.805Z,69.70
2019-01-19T14:34:05.863Z,70.90
2019-01-19T14:36:34.035Z,71.80
2019-01-19T14:39:01.982Z,72.00
2019-01-19T14:41:29.973Z,71.50
2019-01-19T14:43:57.943Z,71.90
2019-01-19T14:46:26.000Z,72.20
2019-01-19T14:48:54.088Z,72.30
2019-01-19T14:51:22.055Z,71.20
2019-01-19T14:53:50.004Z,70.90
2019-01-19T14:56:18.202Z,71.50
2019-01-19T14:58:46.173Z,71.70
2019-01-19T15:01:15.334Z,72.10
2019-01-19T15:03:43.335Z,72.70
2019-01-19T15:06:11.510Z,72.50
2019-01-19T15:08:40.524Z,73.20
2019-01-19T15:11:08.884Z,73.80
2019-01-19T15:13:36.851Z,73.10
2019-01-19T15:16:05.028Z,73.40
2019-01-19T15:18:33.754Z,73.60
2019-01-19T15:21:01.887Z,73.70
2019-01-19T15:23:30.267Z,74.00
2019-01-19T15:25:58.241Z,74.20
2019-01-19T15:28:26.208Z,73.90
2019-01-19T15:30:54.486Z,73.80
2019-01-19T15:33:24.144Z,74.60
2019-01-19T15:35:55.905Z,74.90
2019-01-19T15:38:24.002Z,75.30
2019-01-19T15:40:52.094Z,75.10
2019-01-19T15:43:20.061Z,75.90
2019-01-19T15:45:48.231Z,76.20
2019-01-19T15:48:16.136Z,76.70
2019-01-19T15:50:44.178Z,76.90
2019-01-19T15:53:12.248Z,77.70
2019-01-19T15:55:40.528Z,79.20
2019-01-19T15:58:08.485Z,79.70
2019-01-19T16:00:37.565Z,80.40
2019-01-19T16:03:05.969Z,81.00
2019-01-19T16:05:34.455Z,81.90
2019-01-19T16:08:02.522Z,82.70
2019-01-19T16:10:30.580Z,82.80
2019-01-19T16:12:58.864Z,83.00
2019-01-19T16:15:26.856Z,83.80
2019-01-19T16:17:56.843Z,84.20
2019-01-19T16:20:24.829Z,84.50
2019-01-19T16:22:53.000Z,85.00
2019-01-19T16:25:21.281Z,86.40
2019-01-19T16:27:49.349Z,86.40
2019-01-19T16:30:19.179Z,86.80
2019-01-19T16:32:47.132Z,87.60
2019-01-19T16:35:15.306Z,87.50
2019-01-19T16:37:43.384Z,88.20
2019-01-19T16:40:12.529Z,88.80
2019-01-19T16:42:40.749Z,89.20
2019-01-19T16:45:09.780Z,89.70
2019-01-19T16:47:37.919Z,89.80
2019-01-19T16:50:05.987Z,89.90
2019-01-19T16:52:35.274Z,90.10
2019-01-19T16:55:03.586Z,90.40
2019-01-19T16:57:32.048Z,90.50
2019-01-19T17:00:00.345Z,90.60
2019-01-19T17:02:28.394Z,90.90
2019-01-19T17:04:56.470Z,91.10
2019-01-19T17:07:24.539Z,91.30
2019-01-19T17:09:52.612Z,91.50
2019-01-19T17:12:20.557Z,91.90
2019-01-19T17:14:48.550Z,91.70
2019-01-19T17:17:16.496Z,91.70
2019-01-19T17:19:44.488Z,91.90
2019-01-19T17:22:12.444Z,91.90
2019-01-19T17:24:40.406Z,92.10
2019-01-19T17:27:08.710Z,92.60
2019-01-19T17:29:36.673Z,92.30
2019-01-19T17:32:04.618Z,92.50
2019-01-19T17:34:32.586Z,92.90
2019-01-19T17:37:01.300Z,92.80
2019-01-19T17:39:29.243Z,92.60
2019-01-19T17:41:57.446Z,92.60
2019-01-19T17:44:25.519Z,92.70
2019-01-19T17:46:56.053Z,93.20
2019-01-19T17:49:24.321Z,93.30
2019-01-19T17:51:53.929Z,93.30
2019-01-19T17:54:21.982Z,93.40
2019-01-19T17:56:51.278Z,93.40
2019-01-19T17:59:19.270Z,93.50
2019-01-19T18:01:47.426Z,93.60
2019-01-19T18:04:15.503Z,93.50
2019-01-19T18:06:43.694Z,93.60
2019-01-19T18:09:11.766Z,94.00
2019-01-19T18:11:39.837Z,94.10
2019-01-19T18:14:08.037Z,93.80
2019-01-19T18:16:36.222Z,93.80
2019-01-19T18:19:04.459Z,93.80
2019-01-19T18:21:32.608Z,93.80
2019-01-19T18:24:00.579Z,93.90
2019-01-19T18:26:30.197Z,93.90
2019-01-19T18:29:00.726Z,93.90
2019-01-19T18:31:31.642Z,94.20
2019-01-19T18:33:59.784Z,93.90
2019-01-19T18:36:27.923Z,93.80
2019-01-19T18:38:56.003Z,93.90
2019-01-19T18:41:24.021Z,93.80
2019-01-19T18:43:53.867Z,93.90
2019-01-19T18:46:22.320Z,93.90
2019-01-19T18:48:53.097Z,93.80
2019-01-19T18:51:21.038Z,93.90
2019-01-19T18:53:49.053Z,94.10
2019-01-19T18:56:17.112Z,94.00
2019-01-19T18:58:45.075Z,94.10
2019-01-19T19:01:13.330Z,94.10
2019-01-19T19:03:41.732Z,94.00
2019-01-19T19:06:09.676Z,93.70
2019-01-19T19:08:37.646Z,93.80
2019-01-19T19:11:17.693Z,93.80
2019-01-19T19:13:46.204Z,93.70
2019-01-19T19:16:14.819Z,93.70
2019-01-19T19:18:42.974Z,93.80
2019-01-19T19:21:12.381Z,93.70
2019-01-19T19:23:40.436Z,93.70
2019-01-19T19:26:08.511Z,93.70
2019-01-19T19:28:36.580Z,93.60
2019-01-19T19:31:04.552Z,93.40
2019-01-19T19:33:32.519Z,93.40
2019-01-19T19:36:00.902Z,93.50
2019-01-19T19:38:30.096Z,93.50
2019-01-19T19:40:58.286Z,93.90
2019-01-19T19:43:26.110Z,93.50
2019-01-19T19:45:53.995Z,93.50
2019-01-19T19:48:23.679Z,93.30
2019-01-19T19:50:51.686Z,93.40
2019-01-19T19:53:19.655Z,93.40
2019-01-19T19:55:47.625Z,93.50
2019-01-19T19:58:15.665Z,93.30
2019-01-19T20:00:43.958Z,93.20
2019-01-19T20:03:12.287Z,93.00
2019-01-19T20:05:41.869Z,92.70
2019-01-19T20:08:09.915Z,92.30
2019-01-19T20:10:38.025Z,92.20
2019-01-19T20:13:05.891Z,92.20
2019-01-19T20:15:33.939Z,92.40
2019-01-19T20:18:03.233Z,92.50
2019-01-19T20:20:31.123Z,93.00
2019-01-19T20:23:00.146Z,92.70
2019-01-19T20:25:28.230Z,92.50
2019-01-19T20:27:56.773Z,92.60
2019-01-19T20:30:25.135Z,92.50
2019-01-19T20:32:53.245Z,92.50
2019-01-19T20:35:21.153Z,92.80
2019-01-19T20:37:49.091Z,92.20
2019-01-19T20:40:24.326Z,91.90
2019-01-19T20:42:49.041Z,92.00
2019-01-19T20:45:18.039Z,91.50
2019-01-19T20:47:46.890Z,91.40
2019-01-19T20:50:14.819Z,91.20
2019-01-19T20:52:45.029Z,91.20
2019-01-19T20:55:12.755Z,91.30
2019-01-19T20:57:41.247Z,91.40
2019-01-19T21:00:11.331Z,91.50
2019-01-19T21:02:39.419Z,91.60
2019-01-19T21:05:07.296Z,91.60
2019-01-19T21:07:38.830Z,91.60
2019-01-19T21:10:07.356Z,91.60
2019-01-19T21:12:35.460Z,91.50
2019-01-19T21:15:03.522Z,91.40
2019-01-19T21:20:11.823Z,91.00
2019-01-19T21:22:42.518Z,90.80
2019-01-19T21:25:14.505Z,90.50
2019-01-19T21:27:45.691Z,90.50
2019-01-19T21:30:14.447Z,90.40
2019-01-19T21:32:42.441Z,90.30
2019-01-19T21:35:11.050Z,90.30
2019-01-19T21:37:39.831Z,90.20
2019-01-19T21:40:08.374Z,90.10
2019-01-19T21:42:36.490Z,89.90
2019-01-19T21:45:05.022Z,90.00
2019-01-19T21:47:33.755Z,90.00
2019-01-19T21:50:11.052Z,89.70
2019-01-19T21:52:39.122Z,90.10
2019-01-19T21:55:07.162Z,89.90
2019-01-19T21:57:35.261Z,90.00
2019-01-19T22:00:03.336Z,90.00
2019-01-19T22:02:34.227Z,90.00
2019-01-19T22:05:02.344Z,90.00
2019-01-19T22:07:30.355Z,90.10
2019-01-19T22:09:58.360Z,90.10
2019-01-19T22:12:26.455Z,90.20
2019-01-19T22:14:54.428Z,90.50
2019-01-19T22:17:22.394Z,90.50
2019-01-19T22:19:52.268Z,90.50
2019-01-19T22:22:20.255Z,90.60
2019-01-19T22:24:48.146Z,90.70
2019-01-19T22:27:19.084Z,90.70
2019-01-19T22:29:47.126Z,90.70
2019-01-19T22:32:15.103Z,90.80
2019-01-19T22:34:43.508Z,90.80
2019-01-19T22:37:11.472Z,90.80
2019-01-19T22:39:39.444Z,90.80
2019-01-19T22:42:07.596Z,90.80
2019-01-19T22:44:35.566Z,90.90
2019-01-19T22:47:03.871Z,91.00
2019-01-19T22:49:32.247Z,90.60
2019-01-19T22:52:00.727Z,90.70
2019-01-19T22:54:28.796Z,91.00
2019-01-19T22:56:56.969Z,91.10
2019-01-19T22:59:25.066Z,91.40
2019-01-19T23:01:53.010Z,91.80
2019-01-19T23:04:22.059Z,91.70
2019-01-19T23:06:52.841Z,91.70
2019-01-19T23:09:21.033Z,91.90
2019-01-19T23:11:48.989Z,92.00
2019-01-19T23:14:17.656Z,92.20
2019-01-19T23:16:45.614Z,92.30
2019-01-19T23:19:14.582Z,92.50
2019-01-19T23:21:43.014Z,92.50
2019-01-19T23:24:12.751Z,92.60
2019-01-19T23:26:41.485Z,93.00
2019-01-19T23:29:09.457Z,92.90
2019-01-19T23:31:37.653Z,93.10
2019-01-19T23:34:05.829Z,93.30
2019-01-19T23:36:34.016Z,93.40
2019-01-19T23:39:02.074Z,93.60
2019-01-19T23:41:31.879Z,93.60
2019-01-19T23:43:59.860Z,93.70
2019-01-19T23:46:28.780Z,94.00
2019-01-19T23:48:56.818Z,95.00
2019-01-19T23:51:24.790Z,95.30
2019-01-19T23:53:53.252Z,95.50
2019-01-19T23:56:21.447Z,96.30
2019-01-19T23:58:49.607Z,96.80
